sensor_id;sensor_type;location;lat;lon;timestamp;pressure;altitude;pressure_sealevel;temperature;humidity
52993;BME280;38875;52.216;21.040;2022-11-23T08:02:41;144894.06;;;-0.03;100.00
52993;BME280;38875;52.216;21.040;2022-11-23T08:05:08;144904.19;;;0.02;100.00
52993;BME280;38875;52.216;21.040;2022-11-23T08:07:33;144923.06;;;0.09;100.00
52993;BME280;38875;52.216;21.040;2022-11-23T08:09:59;144911.75;;;0.05;100.00
52993;BME280;38875;52.216;21.040;2022-11-23T08:12:25;144934.38;;;0.14;100.00
52993;BME280;38875;52.216;21.040;2022-11-23T08:14:51;144910.47;;;0.04;100.00
52993;BME280;38875;52.216;21.040;2022-11-23T08:17:17;144916.78;;;0.07;100.00
52993;BME280;38875;52.216;21.040;2022-11-23T08:19:43;144891.56;;;-0.04;100.00
52993;BME280;38875;52.216;21.040;2022-11-23T08:22:08;144871.44;;;-0.12;100.00
52993;BME280;38875;52.216;21.040;2022-11-23T08:24:35;144881.50;;;-0.08;100.00
52993;BME280;38875;52.216;21.040;2022-11-23T08:27:00;144876.47;;;-0.10;100.00
52993;BME280;38875;52.216;21.040;2022-11-23T08:29:26;144856.34;;;-0.18;100.00
52993;BME280;38875;52.216;21.040;2022-11-23T08:31:52;144872.69;;;-0.11;100.00
52993;BME280;38875;52.216;21.040;2022-11-23T08:34:18;144875.19;;;-0.10;100.00
52993;BME280;38875;52.216;21.040;2022-11-23T08:36:44;144872.69;;;-0.11;100.00
52993;BME280;38875;52.216;21.040;2022-11-23T08:39:10;144914.25;;;0.06;100.00
52993;BME280;38875;52.216;21.040;2022-11-23T08:41:37;144907.97;;;0.03;100.00
52993;BME280;38875;52.216;21.040;2022-11-23T08:44:03;144901.66;;;0.01;100.00
52993;BME280;38875;52.216;21.040;2022-11-23T08:46:29;144910.47;;;0.04;100.00
52993;BME280;38875;52.216;21.040;2022-11-23T08:48:55;144920.53;;;0.08;100.00
52993;BME280;38875;52.216;21.040;2022-11-23T08:51:21;144899.09;;;-0.01;100.00
52993;BME280;38875;52.216;21.040;2022-11-23T08:53:48;144876.47;;;-0.10;100.00
52993;BME280;38875;52.216;21.040;2022-11-23T08:56:14;144901.66;;;0.01;100.00
52993;BME280;38875;52.216;21.040;2022-11-23T08:58:40;144906.69;;;0.03;100.00
52993;BME280;38875;52.216;21.040;2022-11-23T09:01:16;144884.00;;;-0.07;100.00
52993;BME280;38875;52.216;21.040;2022-11-23T09:07:02;144853.81;;;-0.19;100.00
52993;BME280;38875;52.216;21.040;2022-11-23T09:20:12;144900.41;;;0.00;100.00
52993;BME280;38875;52.216;21.040;2022-11-23T09:22:38;144913.00;;;0.05;100.00
52993;BME280;38875;52.216;21.040;2022-11-23T09:25:04;144906.69;;;0.03;100.00
52993;BME280;38875;52.216;21.040;2022-11-23T09:27:31;144885.25;;;-0.06;100.00
52993;BME280;38875;52.216;21.040;2022-11-23T09:30:03;144921.81;;;0.09;100.00
52993;BME280;38875;52.216;21.040;2022-11-23T09:32:31;144959.56;;;0.24;100.00
52993;BME280;38875;52.216;21.040;2022-11-23T09:34:57;144957.03;;;0.23;100.00
52993;BME280;38875;52.216;21.040;2022-11-23T09:56:36;144934.38;;;0.14;100.00
52993;BME280;38875;52.216;21.040;2022-11-23T10:01:51;145021.28;;;0.49;100.00
52993;BME280;38875;52.216;21.040;2022-11-23T10:04:18;144963.31;;;0.25;100.00
52993;BME280;38875;52.216;21.040;2022-11-23T10:06:51;144967.09;;;0.27;100.00
52993;BME280;38875;52.216;21.040;2022-11-23T10:12:41;144964.59;;;0.26;100.00
52993;BME280;38875;52.216;21.040;2022-11-23T10:22:58;144979.72;;;0.32;100.00
52993;BME280;38875;52.216;21.040;2022-11-23T10:25:28;145006.16;;;0.43;100.00
52993;BME280;38875;52.216;21.040;2022-11-23T10:28:00;145007.41;;;0.43;100.00
52993;BME280;38875;52.216;21.040;2022-11-23T10:30:27;144946.97;;;0.19;100.00
52993;BME280;38875;52.216;21.040;2022-11-23T10:33:23;144979.72;;;0.32;100.00
52993;BME280;38875;52.216;21.040;2022-11-23T10:35:45;145008.69;;;0.44;100.00
52993;BME280;38875;52.216;21.040;2022-11-23T10:38:15;145006.16;;;0.43;100.00
52993;BME280;38875;52.216;21.040;2022-11-23T10:41:08;144998.59;;;0.40;100.00
52993;BME280;38875;52.216;21.040;2022-11-23T10:43:46;144987.28;;;0.35;100.00
52993;BME280;38875;52.216;21.040;2022-11-23T10:49:24;144986.03;;;0.35;100.00
52993;BME280;38875;52.216;21.040;2022-11-23T10:54:48;144969.63;;;0.28;100.00
52993;BME280;38875;52.216;21.040;2022-11-23T10:57:30;144970.88;;;0.28;100.00
52993;BME280;38875;52.216;21.040;2022-11-23T11:02:47;144948.22;;;0.19;100.00
52993;BME280;38875;52.216;21.040;2022-11-23T11:05:36;144972.19;;;0.29;100.00
52993;BME280;38875;52.216;21.040;2022-11-23T11:08:12;144960.81;;;0.24;100.00
52993;BME280;38875;52.216;21.040;2022-11-23T11:10:41;144950.75;;;0.20;100.00
52993;BME280;38875;52.216;21.040;2022-11-23T11:18:47;144982.25;;;0.33;100.00
52993;BME280;38875;52.216;21.040;2022-11-23T11:21:19;144967.09;;;0.27;100.00
52993;BME280;38875;52.216;21.040;2022-11-23T11:23:52;144939.41;;;0.16;100.00
52993;BME280;38875;52.216;21.040;2022-11-23T11:26:21;144953.25;;;0.21;100.00
52993;BME280;38875;52.216;21.040;2022-11-23T11:28:49;144968.34;;;0.27;100.00
52993;BME280;38875;52.216;21.040;2022-11-23T11:31:55;144952.00;;;0.21;100.00
52993;BME280;38875;52.216;21.040;2022-11-23T11:39:55;145002.38;;;0.41;100.00
52993;BME280;38875;52.216;21.040;2022-11-23T11:42:43;144996.09;;;0.39;100.00
52993;BME280;38875;52.216;21.040;2022-11-23T11:45:24;145011.19;;;0.45;100.00
52993;BME280;38875;52.216;21.040;2022-11-23T11:47:58;145002.38;;;0.41;100.00
52993;BME280;38875;52.216;21.040;2022-11-23T11:50:29;145040.16;;;0.56;100.00
52993;BME280;38875;52.216;21.040;2022-11-23T11:53:03;145066.63;;;0.67;100.00
52993;BME280;38875;52.216;21.040;2022-11-23T11:55:57;145072.94;;;0.70;100.00
52993;BME280;38875;52.216;21.040;2022-11-23T11:58:26;145109.44;;;0.84;100.00
52993;BME280;38875;52.216;21.040;2022-11-23T12:01:03;145106.91;;;0.83;100.00
52993;BME280;38875;52.216;21.040;2022-11-23T12:03:51;145080.47;;;0.73;100.00
52993;BME280;38875;52.216;21.040;2022-11-23T12:06:32;145094.31;;;0.78;100.00
52993;BME280;38875;52.216;21.040;2022-11-23T12:09:29;145023.78;;;0.50;100.00
52993;BME280;38875;52.216;21.040;2022-11-23T12:43:11;144946.97;;;0.19;100.00
52993;BME280;38875;52.216;21.040;2022-11-23T12:49:47;144952.00;;;0.21;100.00
52993;BME280;38875;52.216;21.040;2022-11-23T12:55:48;144962.06;;;0.25;100.00
52993;BME280;38875;52.216;21.040;2022-11-23T12:58:43;144981.00;;;0.33;100.00
52993;BME280;38875;52.216;21.040;2022-11-23T13:01:20;145022.53;;;0.49;100.00
52993;BME280;38875;52.216;21.040;2022-11-23T13:09:56;145030.06;;;0.52;100.00
52993;BME280;38875;52.216;21.040;2022-11-23T13:12:45;144994.84;;;0.38;100.00
52993;BME280;38875;52.216;21.040;2022-11-23T13:15:28;144962.06;;;0.25;100.00
52993;BME280;38875;52.216;21.040;2022-11-23T13:18:15;144974.69;;;0.30;100.00
52993;BME280;38875;52.216;21.040;2022-11-23T13:24:00;144975.97;;;0.30;100.00
52993;BME280;38875;52.216;21.040;2022-11-23T13:30:43;144901.66;;;0.01;100.00
52993;BME280;38875;52.216;21.040;2022-11-23T13:37:00;144969.63;;;0.28;100.00
52993;BME280;38875;52.216;21.040;2022-11-23T13:42:15;144924.31;;;0.10;100.00
52993;BME280;38875;52.216;21.040;2022-11-23T13:44:50;144916.78;;;0.07;100.00
52993;BME280;38875;52.216;21.040;2022-11-23T13:47:38;144924.31;;;0.10;100.00
52993;BME280;38875;52.216;21.040;2022-11-23T13:50:08;144934.38;;;0.14;100.00
52993;BME280;38875;52.216;21.040;2022-11-23T13:52:48;144896.59;;;-0.02;100.00
52993;BME280;38875;52.216;21.040;2022-11-23T14:06:15;144916.78;;;0.07;100.00
52993;BME280;38875;52.216;21.040;2022-11-23T14:08:46;144911.75;;;0.05;100.00
52993;BME280;38875;52.216;21.040;2022-11-23T14:11:16;144904.19;;;0.02;100.00
52993;BME280;38875;52.216;21.040;2022-11-23T14:13:57;144892.81;;;-0.03;100.00
52993;BME280;38875;52.216;21.040;2022-11-23T14:19:35;144889.03;;;-0.05;100.00
